Time;durP1;ratioP1;P1;durP2;ratioP2;P2;SDS_P1;SDS_P2;PMS_P1;PMS_P2;Temp;Humidity;BMP_temperature;BMP_pressure;BME280_temperature;BME280_humidity;BME280_pressure;Samples;Min_cycle;Max_cycle;Signal;HPM_P1;HPM_P2
2022/05/25 00:01:05;;;;;;;10.02;3.63;;;12.20;81.90;;;;;;5007972;28;20057;-74
2022/05/25 00:03:33;;;;;;;9.75;3.90;;;12.20;82.30;;;;;;4999300;28;20528;-75
2022/05/25 00:06:05;;;;;;;12.63;3.50;;;12.20;82.20;;;;;;5001554;28;20048;-74
2022/05/25 00:08:32;;;;;;;9.63;3.40;;;12.10;82.20;;;;;;4993548;28;20509;-74
2022/05/25 00:10:57;;;;;;;11.88;4.18;;;12.10;82.30;;;;;;4996089;28;20038;-74
2022/05/25 00:13:23;;;;;;;10.13;3.80;;;12.10;82.40;;;;;;4996362;28;20527;-75
2022/05/25 00:15:49;;;;;;;12.07;4.22;;;12.10;82.40;;;;;;4995579;28;21108;-75
2022/05/25 00:18:15;;;;;;;10.48;3.75;;;12.10;82.50;;;;;;5000588;28;20163;-75
2022/05/25 00:20:40;;;;;;;9.85;3.53;;;12.10;82.60;;;;;;5003997;28;20133;-74
2022/05/25 00:23:06;;;;;;;12.15;3.72;;;12.10;82.70;;;;;;5026226;28;20048;-75
2022/05/25 00:25:35;;;;;;;9.50;3.42;;;12.10;82.70;;;;;;4998622;28;20479;-75
2022/05/25 00:28:03;;;;;;;11.38;4.00;;;12.10;82.70;;;;;;5001664;28;20034;-75
2022/05/25 00:30:30;;;;;;;11.13;3.92;;;12.10;82.70;;;;;;4998080;28;20042;-74
2022/05/25 00:32:56;;;;;;;9.32;3.60;;;12.00;82.70;;;;;;5004979;28;20042;-75
2022/05/25 00:35:24;;;;;;;11.88;4.07;;;12.00;83.00;;;;;;4998606;28;20041;-75
2022/05/25 00:37:50;;;;;;;8.45;3.88;;;12.00;83.20;;;;;;4996989;28;20034;-75
2022/05/25 00:40:22;;;;;;;10.85;4.53;;;12.00;83.30;;;;;;5002774;28;20087;-74
2022/05/25 00:42:48;;;;;;;12.18;3.92;;;12.00;83.40;;;;;;4999580;28;20031;-74
2022/05/25 00:45:15;;;;;;;8.05;3.40;;;12.00;83.30;;;;;;4997887;28;20343;-75
2022/05/25 00:47:44;;;;;;;9.40;3.75;;;11.90;83.30;;;;;;4995631;28;20123;-75
2022/05/25 00:50:13;;;;;;;13.52;3.58;;;11.90;83.30;;;;;;5010000;28;20396;-75
2022/05/25 00:52:41;;;;;;;9.85;3.85;;;11.90;83.40;;;;;;5009510;28;20084;-74
2022/05/25 00:55:08;;;;;;;13.93;4.03;;;11.90;83.50;;;;;;5005304;28;20486;-75
2022/05/25 00:57:38;;;;;;;11.93;3.50;;;11.90;83.70;;;;;;5009357;28;20232;-74
2022/05/25 01:00:12;;;;;;;12.68;4.90;;;11.90;83.70;;;;;;5002239;28;20060;-74
2022/05/25 01:02:41;;;;;;;9.18;4.20;;;11.90;83.70;;;;;;5013929;28;20065;-75
2022/05/25 01:05:08;;;;;;;11.55;4.60;;;11.80;83.70;;;;;;5015960;28;20389;-74
2022/05/25 01:07:49;;;;;;;8.82;4.65;;;11.80;83.90;;;;;;5001799;28;20136;-75
2022/05/25 01:10:24;;;;;;;9.68;4.40;;;11.80;84.00;;;;;;5003744;28;20053;-74
2022/05/25 01:13:19;;;;;;;15.82;5.25;;;11.80;84.10;;;;;;5002946;28;20490;-74
2022/05/25 01:15:58;;;;;;;8.50;4.10;;;11.70;84.20;;;;;;5002656;28;20050;-75
2022/05/25 01:18:27;;;;;;;11.68;5.03;;;11.70;84.20;;;;;;5002871;28;20041;-75
2022/05/25 01:21:03;;;;;;;9.70;4.85;;;11.70;84.20;;;;;;5000812;28;20044;-75
2022/05/25 01:23:56;;;;;;;13.60;6.13;;;11.70;84.40;;;;;;5002134;28;20046;-75
2022/05/25 01:26:53;;;;;;;11.93;5.55;;;11.70;84.40;;;;;;4999627;28;20065;-75
2022/05/25 01:29:22;;;;;;;11.82;6.07;;;11.70;84.40;;;;;;4990945;28;20033;-75
2022/05/25 01:31:52;;;;;;;12.00;5.50;;;11.70;84.40;;;;;;4998907;28;20563;-74
2022/05/25 01:34:34;;;;;;;16.48;6.10;;;11.70;84.40;;;;;;5023634;28;20066;-75
2022/05/25 01:37:23;;;;;;;10.68;5.00;;;11.70;84.30;;;;;;4994517;28;20053;-75
2022/05/25 01:40:00;;;;;;;12.30;5.32;;;11.60;84.20;;;;;;4996001;28;20045;-75
2022/05/25 01:42:30;;;;;;;10.95;5.70;;;11.60;84.50;;;;;;5000139;28;20111;-75
2022/05/25 01:45:01;;;;;;;12.82;6.50;;;11.50;84.50;;;;;;5007387;28;20041;-75
2022/05/25 01:47:30;;;;;;;10.52;5.85;;;11.50;84.40;;;;;;4997593;28;20050;-74
2022/05/25 01:50:06;;;;;;;14.02;5.45;;;11.50;84.50;;;;;;5009806;28;20441;-75
2022/05/25 01:52:40;;;;;;;11.05;5.43;;;11.40;84.50;;;;;;5004213;28;20046;-74
2022/05/25 01:55:11;;;;;;;12.63;5.68;;;11.30;84.50;;;;;;5001947;28;20440;-74
2022/05/25 01:57:44;;;;;;;12.63;5.50;;;11.30;84.70;;;;;;5005613;28;20048;-74
2022/05/25 02:00:24;;;;;;;13.10;5.25;;;11.20;84.90;;;;;;5006775;28;20050;-74
2022/05/25 02:05:36;;;;;;;11.18;5.28;;;11.20;84.70;;;;;;5007023;28;20609;-75
2022/05/25 02:08:36;;;;;;;9.75;5.07;;;11.20;84.80;;;;;;5002169;28;20049;-74
2022/05/25 02:11:16;;;;;;;13.10;4.95;;;11.20;84.70;;;;;;5003929;28;20068;-75
2022/05/25 02:13:41;;;;;;;13.90;5.85;;;11.10;84.60;;;;;;5008731;28;20052;-74
2022/05/25 02:16:35;;;;;;;13.25;5.50;;;11.10;84.70;;;;;;5005435;28;20054;-75
2022/05/25 02:19:33;;;;;;;7.75;4.80;;;11.10;84.80;;;;;;4996512;28;20042;-74
2022/05/25 02:22:15;;;;;;;9.32;4.68;;;11.00;85.00;;;;;;5005899;28;20434;-74
2022/05/25 02:24:58;;;;;;;9.40;5.13;;;11.00;85.10;;;;;;4999895;28;20042;-74
2022/05/25 02:27:35;;;;;;;9.60;4.47;;;11.00;85.00;;;;;;5020212;28;20445;-74
2022/05/25 02:30:05;;;;;;;12.68;5.30;;;10.90;85.10;;;;;;4993370;28;20030;-75
2022/05/25 02:32:50;;;;;;;15.75;5.60;;;10.90;85.20;;;;;;4995500;28;20037;-75
2022/05/25 02:35:17;;;;;;;;;;;10.80;85.30;;;;;;4990026;28;20044;-74
2022/05/25 02:37:43;;;;;;;12.80;5.18;;;10.80;85.40;;;;;;4993906;28;20014;-74
2022/05/25 02:40:11;;;;;;;10.55;5.25;;;10.80;85.40;;;;;;4992522;28;20572;-75
2022/05/25 02:42:38;;;;;;;11.30;5.88;;;10.80;85.50;;;;;;4990438;28;20048;-75
2022/05/25 02:45:05;;;;;;;11.90;5.57;;;10.70;85.60;;;;;;4991681;28;20034;-75
2022/05/25 02:47:30;;;;;;;9.77;5.65;;;10.70;85.70;;;;;;4992497;28;20462;-74
2022/05/25 02:49:59;;;;;;;14.90;5.85;;;10.80;85.70;;;;;;4999437;28;20048;-74
2022/05/25 02:52:24;;;;;;;10.63;5.88;;;10.70;85.90;;;;;;5001616;28;20133;-75
2022/05/25 02:54:50;;;;;;;11.07;5.25;;;10.70;85.90;;;;;;5003643;28;20483;-74
2022/05/25 02:57:17;;;;;;;10.32;5.40;;;10.80;85.90;;;;;;5006038;28;20147;-75
2022/05/25 02:59:42;;;;;;;11.68;6.05;;;10.70;86.10;;;;;;5003379;28;20502;-74
2022/05/25 03:02:08;;;;;;;12.93;5.95;;;10.70;86.10;;;;;;5015529;28;20034;-75
2022/05/25 03:04:37;;;;;;;11.93;5.97;;;10.80;86.10;;;;;;5003909;28;20373;-75
2022/05/25 03:07:03;;;;;;;10.75;5.57;;;10.80;86.00;;;;;;4991310;28;20180;-74
2022/05/25 03:09:29;;;;;;;14.55;5.25;;;10.80;86.10;;;;;;4995051;28;20042;-74
2022/05/25 03:11:55;;;;;;;11.10;6.20;;;10.70;86.20;;;;;;4991349;28;20050;-74
2022/05/25 03:14:20;;;;;;;12.63;6.00;;;10.70;86.20;;;;;;4992387;28;20506;-74
2022/05/25 03:16:46;;;;;;;13.10;5.50;;;10.70;86.40;;;;;;4991048;28;20037;-77
2022/05/25 03:19:12;;;;;;;14.40;6.47;;;10.80;86.30;;;;;;4991048;28;21496;-76
2022/05/25 03:21:37;;;;;;;11.50;6.10;;;10.80;86.30;;;;;;4989364;28;20132;-76
2022/05/25 03:24:03;;;;;;;13.60;5.68;;;10.80;86.40;;;;;;4995028;28;20054;-76
2022/05/25 03:26:30;;;;;;;11.80;5.75;;;10.70;86.50;;;;;;4991090;28;20121;-76
2022/05/25 03:28:56;;;;;;;12.15;5.50;;;10.80;86.50;;;;;;5002633;28;20441;-76
2022/05/25 03:31:22;;;;;;;14.68;5.43;;;10.80;86.60;;;;;;4998373;28;20038;-75
2022/05/25 03:33:48;;;;;;;11.48;6.15;;;10.80;86.60;;;;;;5006100;28;20044;-75
2022/05/25 03:36:13;;;;;;;11.43;6.07;;;10.80;86.60;;;;;;4989572;28;20042;-76
2022/05/25 03:38:39;;;;;;;14.20;5.93;;;10.90;86.70;;;;;;4988104;28;20034;-75
2022/05/25 03:41:05;;;;;;;14.63;6.22;;;10.90;86.80;;;;;;5003358;28;20034;-75
2022/05/25 03:43:33;;;;;;;12.02;6.18;;;11.00;86.70;;;;;;5008617;28;20037;-75
2022/05/25 03:46:00;;;;;;;14.38;6.35;;;10.90;86.60;;;;;;4997217;28;20042;-75
2022/05/25 03:48:26;;;;;;;12.10;5.88;;;11.00;86.60;;;;;;5001158;28;20065;-75
2022/05/25 03:50:51;;;;;;;14.75;5.72;;;11.00;86.50;;;;;;4992987;28;20371;-75
2022/05/25 03:53:17;;;;;;;14.43;6.13;;;11.10;86.40;;;;;;4996603;28;20038;-75
2022/05/25 03:55:43;;;;;;;11.38;6.20;;;11.10;86.20;;;;;;5001534;28;20045;-76
2022/05/25 03:58:10;;;;;;;13.30;6.30;;;11.10;86.30;;;;;;5000740;28;20422;-76
2022/05/25 04:00:36;;;;;;;14.27;6.22;;;11.10;86.30;;;;;;5003758;28;20056;-75
2022/05/25 04:03:03;;;;;;;12.00;6.13;;;11.10;86.10;;;;;;5001702;28;20034;-75
2022/05/25 04:05:30;;;;;;;12.25;6.15;;;11.10;86.10;;;;;;5002501;28;20727;-75
2022/05/25 04:07:58;;;;;;;10.32;6.05;;;11.10;85.90;;;;;;4993457;28;20457;-75
2022/05/25 04:10:25;;;;;;;11.82;5.78;;;11.10;86.00;;;;;;5002783;28;20534;-75
2022/05/25 04:12:51;;;;;;;13.75;5.90;;;11.10;86.00;;;;;;4997097;28;20057;-75
2022/05/25 04:15:21;;;;;;;9.80;5.93;;;11.10;85.80;;;;;;5003743;28;20427;-75
2022/05/25 04:17:47;;;;;;;13.55;6.05;;;11.20;85.70;;;;;;4997610;28;20125;-75
2022/05/25 04:20:14;;;;;;;12.27;6.00;;;11.20;85.60;;;;;;4998861;28;20044;-75
2022/05/25 04:22:40;;;;;;;13.70;6.20;;;11.20;85.50;;;;;;4993593;28;20030;-75
2022/05/25 04:25:10;;;;;;;15.88;6.68;;;11.20;85.60;;;;;;4994906;28;20053;-75
2022/05/25 04:27:37;;;;;;;10.98;5.97;;;11.20;85.50;;;;;;4991172;28;20539;-75
2022/05/25 04:30:06;;;;;;;13.35;6.05;;;11.30;85.40;;;;;;4992861;28;20034;-75
2022/05/25 04:32:32;;;;;;;15.93;6.45;;;11.30;85.40;;;;;;4992124;28;20030;-75
2022/05/25 04:34:58;;;;;;;12.32;6.43;;;11.40;85.30;;;;;;4993535;28;20428;-75
2022/05/25 04:40:10;;;;;;;11.27;6.25;;;11.40;85.00;;;;;;4990112;28;20401;-76
2022/05/25 04:42:36;;;;;;;13.07;6.22;;;11.50;84.90;;;;;;4992373;28;20037;-75
2022/05/25 04:45:03;;;;;;;12.25;6.65;;;11.50;84.90;;;;;;4992125;28;20030;-75
2022/05/25 04:47:30;;;;;;;11.88;6.20;;;11.50;85.00;;;;;;4994762;28;20049;-75
2022/05/25 04:49:56;;;;;;;14.15;6.68;;;11.60;85.00;;;;;;4991120;28;20054;-74
2022/05/25 04:52:22;;;;;;;12.18;6.30;;;11.60;84.80;;;;;;5002957;28;20134;-74
2022/05/25 04:54:47;;;;;;;15.38;6.53;;;11.60;84.80;;;;;;5003466;28;20410;-75
2022/05/25 04:57:19;;;;;;;13.77;6.63;;;11.60;84.80;;;;;;5012011;28;20322;-74
2022/05/25 04:59:52;;;;;;;11.57;6.25;;;11.70;84.50;;;;;;4996284;28;20048;-75
2022/05/25 05:02:18;;;;;;;11.52;6.25;;;11.70;84.60;;;;;;4992827;28;20038;-75
2022/05/25 05:04:45;;;;;;;12.32;6.07;;;11.80;84.40;;;;;;4994493;28;20042;-75
2022/05/25 05:07:12;;;;;;;13.23;5.82;;;11.80;84.60;;;;;;4996005;28;20038;-74
2022/05/25 05:09:40;;;;;;;12.45;5.50;;;11.90;84.50;;;;;;4995340;28;20038;-74
2022/05/25 05:12:06;;;;;;;14.23;5.75;;;12.00;84.30;;;;;;4993166;28;20037;-75
2022/05/25 05:14:32;;;;;;;13.95;5.85;;;12.10;84.30;;;;;;5005218;28;20046;-75
2022/05/25 05:17:00;;;;;;;15.15;5.72;;;12.10;84.00;;;;;;4997866;28;20465;-74
2022/05/25 05:19:26;;;;;;;11.52;5.55;;;12.20;84.10;;;;;;4993280;28;20034;-75
2022/05/25 05:21:59;;;;;;;10.88;4.82;;;13.40;83.30;;;;;;4997698;28;20046;-75
2022/05/25 05:24:27;;;;;;;9.50;3.97;;;15.20;77.40;;;;;;5002620;28;20061;-75
2022/05/25 05:26:53;;;;;;;12.52;4.05;;;16.80;70.30;;;;;;4998187;28;20046;-75
2022/05/25 05:29:19;;;;;;;11.68;3.67;;;17.90;64.50;;;;;;5023232;28;20359;-76
2022/05/25 05:31:45;;;;;;;8.38;3.33;;;18.70;61.50;;;;;;5005737;28;20088;-76
2022/05/25 05:34:11;;;;;;;7.70;3.10;;;19.40;58.50;;;;;;5005945;28;20030;-76
2022/05/25 05:36:47;;;;;;;9.13;3.08;;;19.60;57.60;;;;;;5010495;28;20064;-76
2022/05/25 05:39:17;;;;;;;8.98;2.85;;;19.80;56.40;;;;;;5005563;28;20046;-76
2022/05/25 05:42:22;;;;;;;10.48;2.83;;;19.60;56.10;;;;;;5009535;28;20100;-75
2022/05/25 05:45:04;;;;;;;10.40;2.97;;;19.50;57.60;;;;;;4967610;28;20425;-76
2022/05/25 05:47:35;;;;;;;6.03;2.78;;;19.80;56.80;;;;;;4977977;28;20063;-76
2022/05/25 05:50:03;;;;;;;7.68;2.58;;;19.30;57.70;;;;;;4998354;28;20038;-75
2022/05/25 05:52:29;;;;;;;7.82;3.03;;;19.00;57.90;;;;;;5011600;28;20447;-75
2022/05/25 05:54:56;;;;;;;9.65;2.90;;;18.30;60.30;;;;;;4996618;28;20053;-75
2022/05/25 05:57:22;;;;;;;9.40;3.20;;;17.30;63.70;;;;;;5002299;28;20124;-75
2022/05/25 05:59:47;;;;;;;11.18;3.28;;;16.60;66.50;;;;;;4999894;28;20124;-75
2022/05/25 06:02:13;;;;;;;10.15;3.78;;;16.10;68.60;;;;;;4991809;28;20541;-75
2022/05/25 06:04:39;;;;;;;10.30;3.28;;;15.50;70.50;;;;;;4999887;28;20037;-76
2022/05/25 06:07:05;;;;;;;10.45;3.35;;;15.20;72.20;;;;;;4999619;28;20485;-75
2022/05/25 06:09:31;;;;;;;10.13;3.28;;;15.20;72.60;;;;;;5002189;28;20038;-76
2022/05/25 06:11:57;;;;;;;10.82;3.25;;;15.20;73.00;;;;;;4999373;28;20168;-75
2022/05/25 06:14:22;;;;;;;12.70;3.85;;;15.30;72.90;;;;;;5015711;28;20044;-75
2022/05/25 06:19:37;;;;;;;12.15;3.35;;;15.30;73.70;;;;;;5005937;28;20111;-76
2022/05/25 06:22:05;;;;;;;11.48;3.30;;;15.30;73.70;;;;;;5010929;28;20033;-75
2022/05/25 06:24:38;;;;;;;8.25;3.15;;;15.30;73.30;;;;;;5005488;28;20068;-78
2022/05/25 06:27:08;;;;;;;12.65;3.65;;;15.50;73.00;;;;;;5012062;28;20076;-75
2022/05/25 06:29:38;;;;;;;13.02;3.50;;;15.50;72.60;;;;;;5010043;28;20041;-75
2022/05/25 06:32:06;;;;;;;9.93;3.17;;;15.70;73.00;;;;;;5016103;28;20037;-76
2022/05/25 06:34:31;;;;;;;7.13;3.08;;;15.80;72.20;;;;;;5003616;28;20609;-75
2022/05/25 06:36:57;;;;;;;10.32;3.13;;;16.00;71.70;;;;;;5018551;28;20105;-75
2022/05/25 06:39:23;;;;;;;12.20;3.33;;;16.30;70.80;;;;;;5014501;28;20480;-73
2022/05/25 06:41:48;;;;;;;9.15;3.28;;;16.50;69.50;;;;;;5021560;28;20034;-73
2022/05/25 06:44:15;;;;;;;11.50;3.03;;;16.70;69.40;;;;;;5016271;28;20046;-75
2022/05/25 06:46:41;;;;;;;9.57;2.75;;;16.90;69.10;;;;;;5007819;28;20041;-76
2022/05/25 06:49:06;;;;;;;11.45;3.17;;;16.80;69.80;;;;;;5007861;28;20056;-77
2022/05/25 06:51:34;;;;;;;10.80;3.35;;;16.60;69.00;;;;;;5006480;28;20044;-74
2022/05/25 06:54:00;;;;;;;8.25;2.70;;;16.50;68.80;;;;;;5011199;28;20048;-76
2022/05/25 06:56:26;;;;;;;13.20;3.35;;;16.70;69.00;;;;;;5006252;28;20037;-75
2022/05/25 06:58:53;;;;;;;7.97;3.15;;;16.90;68.80;;;;;;5001077;28;20049;-75
2022/05/25 07:01:19;;;;;;;10.75;3.30;;;17.20;67.20;;;;;;5005128;28;20061;-74
2022/05/25 07:03:45;;;;;;;9.75;3.17;;;17.40;66.30;;;;;;5003730;28;20494;-73
2022/05/25 07:06:12;;;;;;;10.70;2.90;;;17.40;65.60;;;;;;5006173;28;20037;-74
2022/05/25 07:08:38;;;;;;;10.13;3.00;;;17.40;65.30;;;;;;4995175;28;20667;-79
2022/05/25 07:11:04;;;;;;;11.10;3.20;;;17.50;65.80;;;;;;4992376;28;20125;-76
2022/05/25 07:13:30;;;;;;;10.95;2.85;;;17.50;65.40;;;;;;4996169;28;20034;-76
2022/05/25 07:15:58;;;;;;;14.20;3.17;;;17.40;65.80;;;;;;4990488;28;20122;-79
2022/05/25 07:18:26;;;;;;;7.45;2.80;;;17.30;66.10;;;;;;4990918;28;20065;-76
2022/05/25 07:20:52;;;;;;;8.95;3.40;;;17.10;66.40;;;;;;4993364;28;20437;-73
2022/05/25 07:23:19;;;;;;;9.75;3.20;;;17.10;66.10;;;;;;4998582;28;20137;-72
2022/05/25 07:25:46;;;;;;;8.63;3.22;;;17.20;66.50;;;;;;4997687;28;20034;-75
2022/05/25 07:28:11;;;;;;;8.10;3.08;;;17.40;65.50;;;;;;5003065;28;20042;-74
2022/05/25 07:30:37;;;;;;;9.07;3.33;;;17.50;65.10;;;;;;5010468;28;20357;-74
2022/05/25 07:33:03;;;;;;;8.68;3.22;;;17.60;65.00;;;;;;5002415;28;20037;-73
2022/05/25 07:35:28;;;;;;;9.55;2.63;;;17.60;64.80;;;;;;4997589;28;20041;-72
2022/05/25 07:37:55;;;;;;;7.65;2.63;;;17.60;65.50;;;;;;5003027;28;20044;-81
2022/05/25 07:40:33;;;;;;;8.98;2.53;;;17.60;64.50;;;;;;4994208;28;20068;-79
2022/05/25 07:43:06;;;;;;;9.40;2.88;;;17.80;64.20;;;;;;4990910;28;20038;-73
2022/05/25 07:45:32;;;;;;;9.45;2.40;;;17.90;64.00;;;;;;4994700;28;20030;-72
2022/05/25 07:47:58;;;;;;;9.73;2.83;;;18.00;63.10;;;;;;4997265;28;20179;-73
2022/05/25 07:50:24;;;;;;;9.00;3.05;;;18.10;62.40;;;;;;4998292;28;20138;-73
2022/05/25 07:52:53;;;;;;;7.40;2.60;;;18.10;61.60;;;;;;5014214;28;20033;-72
2022/05/25 07:55:19;;;;;;;12.65;2.72;;;18.30;61.70;;;;;;5012310;28;20034;-73
2022/05/25 07:57:45;;;;;;;10.93;2.70;;;18.30;61.10;;;;;;5002560;28;20045;-75
2022/05/25 08:00:12;;;;;;;11.27;2.38;;;18.40;61.70;;;;;;5006719;28;20029;-74
2022/05/25 08:08:18;;;;;;;6.32;2.50;;;18.80;59.30;;;;;;4999292;28;20104;-77
2022/05/25 08:11:16;;;;;;;8.75;2.30;;;18.80;58.80;;;;;;4998650;28;20462;-75
2022/05/25 08:13:48;;;;;;;6.25;1.88;;;18.80;58.80;;;;;;4999666;28;20477;-74
2022/05/25 08:16:14;;;;;;;7.13;2.15;;;18.90;57.70;;;;;;5005893;28;20192;-73
2022/05/25 08:18:39;;;;;;;9.85;1.77;;;19.00;57.40;;;;;;5008356;28;20026;-72
2022/05/25 08:21:06;;;;;;;8.05;2.25;;;19.00;55.50;;;;;;5007045;28;20044;-75
2022/05/25 08:23:32;;;;;;;5.00;1.73;;;18.60;56.40;;;;;;5008554;28;20048;-80
2022/05/25 08:25:58;;;;;;;7.47;2.30;;;18.60;58.10;;;;;;5011879;28;20045;-72
2022/05/25 08:28:24;;;;;;;5.93;2.05;;;18.90;57.40;;;;;;5005268;28;20033;-75
2022/05/25 08:30:50;;;;;;;5.28;2.10;;;19.10;56.50;;;;;;4998863;28;20559;-73
2022/05/25 08:33:18;;;;;;;8.50;2.00;;;19.10;56.80;;;;;;5003736;28;20496;-75
2022/05/25 08:35:45;;;;;;;4.55;1.98;;;19.20;56.80;;;;;;5013790;28;20049;-72
2022/05/25 08:38:10;;;;;;;5.20;2.08;;;19.30;55.30;;;;;;4998001;28;20386;-78
2022/05/25 08:40:36;;;;;;;5.15;1.83;;;19.70;56.30;;;;;;4991721;28;20038;-75
2022/05/25 08:43:12;;;;;;;6.15;1.60;;;19.60;53.00;;;;;;4995370;28;20140;-77
2022/05/25 08:45:59;;;;;;;7.72;2.15;;;19.30;53.10;;;;;;4991992;28;20320;-75
2022/05/25 08:48:26;;;;;;;5.03;1.40;;;19.40;54.10;;;;;;4991339;28;20112;-74
2022/05/25 08:51:06;;;;;;;7.60;1.50;;;18.80;53.20;;;;;;4990624;28;20041;-75
2022/05/25 08:53:33;;;;;;;6.47;1.63;;;18.50;55.50;;;;;;4991787;28;20042;-76
2022/05/25 08:56:17;;;;;;;7.10;2.15;;;19.10;54.40;;;;;;4995785;28;20050;-76
2022/05/25 08:58:51;;;;;;;5.90;1.65;;;19.80;52.20;;;;;;4995569;28;20322;-76
2022/05/25 09:01:47;;;;;;;9.05;1.63;;;20.00;52.20;;;;;;5001022;28;20042;-73
2022/05/25 09:04:28;;;;;;;6.63;1.60;;;20.30;51.10;;;;;;4985280;28;20512;-75
2022/05/25 09:06:57;;;;;;;8.48;2.13;;;20.40;50.30;;;;;;4999957;28;20434;-74
2022/05/25 09:09:31;;;;;;;5.82;1.70;;;19.60;52.00;;;;;;5006528;28;20521;-73
2022/05/25 09:12:04;;;;;;;5.80;1.50;;;19.30;52.20;;;;;;5009484;28;20448;-77
2022/05/25 09:14:35;;;;;;;4.88;1.70;;;19.90;52.50;;;;;;5005356;28;20030;-72
2022/05/25 09:17:05;;;;;;;4.70;1.55;;;19.90;52.30;;;;;;5005337;28;20116;-73
2022/05/25 09:19:38;;;;;;;7.57;1.73;;;19.80;51.10;;;;;;5008810;28;20065;-75
2022/05/25 09:22:08;;;;;;;5.70;1.48;;;19.60;51.20;;;;;;5010408;28;20038;-72
2022/05/25 09:24:36;;;;;;;4.78;1.45;;;19.10;52.20;;;;;;5010399;28;20153;-74
2022/05/25 09:27:04;;;;;;;5.85;1.60;;;18.40;54.30;;;;;;5010117;28;20091;-78
2022/05/25 09:29:30;;;;;;;5.60;1.45;;;18.80;53.60;;;;;;5007025;28;20029;-74
2022/05/25 09:32:06;;;;;;;7.32;1.60;;;19.10;52.20;;;;;;5012426;28;20091;-73
2022/05/25 09:34:44;;;;;;;5.65;1.63;;;19.50;51.50;;;;;;5007757;28;20033;-75
2022/05/25 09:37:34;;;;;;;4.15;1.40;;;19.90;49.40;;;;;;5005008;28;20436;-74
2022/05/25 09:40:20;;;;;;;5.70;1.40;;;20.10;48.40;;;;;;5007685;28;20041;-74
2022/05/25 09:42:51;;;;;;;3.58;1.50;;;19.30;50.50;;;;;;5010332;28;20037;-74
2022/05/25 09:45:17;;;;;;;5.13;1.70;;;19.60;50.20;;;;;;5017077;28;20045;-76
2022/05/25 09:47:45;;;;;;;5.97;1.40;;;19.80;50.30;;;;;;5005910;28;20049;-76
2022/05/25 09:50:25;;;;;;;6.45;1.20;;;19.60;50.50;;;;;;5003454;28;20041;-73
2022/05/25 09:52:52;;;;;;;7.28;1.67;;;19.50;49.80;;;;;;5004911;28;20034;-73
2022/05/25 09:55:24;;;;;;;4.93;1.20;;;19.50;51.40;;;;;;5012515;28;20037;-75
2022/05/25 09:57:59;;;;;;;6.78;1.85;;;19.40;50.80;;;;;;5007925;28;20095;-76
2022/05/25 10:00:41;;;;;;;6.55;1.40;;;19.70;50.60;;;;;;5009253;28;20421;-74
2022/05/25 10:03:35;;;;;;;7.90;1.95;;;20.20;49.50;;;;;;5002758;28;20061;-76
2022/05/25 10:06:15;;;;;;;4.07;1.40;;;20.10;50.80;;;;;;5005584;28;20046;-80
2022/05/25 10:08:41;;;;;;;6.35;1.30;;;20.30;49.90;;;;;;5011826;28;20096;-79
2022/05/25 10:11:29;;;;;;;9.35;1.65;;;20.50;49.00;;;;;;5009420;28;20535;-77
2022/05/25 10:13:56;;;;;;;4.72;1.50;;;20.10;50.20;;;;;;5006717;28;20033;-75
2022/05/25 10:16:30;;;;;;;6.68;1.50;;;19.60;51.00;;;;;;5007852;28;20089;-77
2022/05/25 10:19:00;;;;;;;4.22;1.85;;;19.30;50.40;;;;;;5000686;28;20833;-78
2022/05/25 10:21:32;;;;;;;8.85;1.85;;;19.10;51.80;;;;;;4993888;28;20330;-83
2022/05/25 10:23:59;;;;;;;4.30;1.50;;;18.80;52.30;;;;;;4993292;28;20199;-83
2022/05/25 10:26:35;;;;;;;6.15;1.35;;;19.10;52.80;;;;;;5009652;28;20049;-77
2022/05/25 10:29:10;;;;;;;7.45;1.73;;;19.40;50.40;;;;;;4992071;28;20067;-77
2022/05/25 10:37:39;;;;;;;5.25;1.40;;;19.50;51.30;;;;;;4992878;28;20374;-74
2022/05/25 10:40:07;;;;;;;6.38;1.63;;;19.50;53.40;;;;;;4985454;28;20719;-78
2022/05/25 10:42:37;;;;;;;4.50;1.80;;;19.50;52.30;;;;;;4988404;28;20572;-74
2022/05/25 10:45:21;;;;;;;4.18;1.50;;;19.80;51.50;;;;;;5018361;28;20035;-80
2022/05/25 10:47:54;;;;;;;5.28;1.38;;;20.20;49.90;;;;;;5003001;28;20125;-77
2022/05/25 10:50:32;;;;;;;5.13;1.50;;;19.80;50.60;;;;;;4986998;28;20054;-79
2022/05/25 10:53:35;;;;;;;5.93;1.77;;;19.50;50.30;;;;;;4988436;28;20042;-77
2022/05/25 10:56:40;;;;;;;6.25;1.50;;;19.10;50.10;;;;;;4988467;28;20046;-77
2022/05/25 10:59:18;;;;;;;4.70;1.27;;;19.40;49.30;;;;;;4988185;28;20180;-81
2022/05/25 11:01:59;;;;;;;7.50;1.92;;;19.30;48.70;;;;;;4992223;28;20033;-79
2022/05/25 11:04:42;;;;;;;7.05;1.58;;;19.00;51.10;;;;;;5016080;28;20085;-78
2022/05/25 11:07:25;;;;;;;8.77;1.73;;;19.60;50.60;;;;;;4986736;28;20045;-76
2022/05/25 11:10:19;;;;;;;7.53;1.50;;;19.80;49.80;;;;;;4991942;28;20846;-79
2022/05/25 11:12:47;;;;;;;6.13;1.50;;;20.40;49.90;;;;;;4988953;28;20042;-77
2022/05/25 11:15:25;;;;;;;6.85;1.50;;;20.70;48.90;;;;;;4986868;28;20443;-78
2022/05/25 11:18:17;;;;;;;6.72;1.58;;;21.00;48.30;;;;;;4988339;28;20481;-83
2022/05/25 11:21:04;;;;;;;7.00;1.60;;;21.40;47.80;;;;;;5022716;28;20048;-80
2022/05/25 11:23:53;;;;;;;7.78;1.50;;;20.80;48.20;;;;;;5019765;28;20362;-82
2022/05/25 11:26:30;;;;;;;6.82;1.50;;;20.60;49.20;;;;;;4987665;28;20041;-76
2022/05/25 11:29:22;;;;;;;9.05;1.58;;;20.60;46.80;;;;;;4990148;28;20136;-76
2022/05/25 11:32:08;;;;;;;7.22;1.30;;;20.20;48.20;;;;;;4986105;28;20089;-80
2022/05/25 11:35:11;;;;;;;3.55;1.25;;;19.70;50.50;;;;;;4985802;28;20050;-79
2022/05/25 11:38:19;;;;;;;6.05;1.35;;;20.10;48.40;;;;;;5018682;28;21668;-77
2022/05/25 11:40:50;;;;;;;6.53;1.40;;;20.70;48.60;;;;;;4986305;28;20085;-78
2022/05/25 11:43:37;;;;;;;8.63;1.83;;;21.10;47.00;;;;;;5007832;28;20871;-78
2022/05/25 11:46:40;;;;;;;3.30;1.30;;;21.50;46.50;;;;;;4995544;28;20046;-77
2022/05/25 11:49:21;;;;;;;5.53;1.42;;;21.40;45.90;;;;;;4994733;28;20080;-76
2022/05/25 11:52:11;;;;;;;5.10;1.67;;;21.60;45.40;;;;;;5000801;28;20041;-74
2022/05/25 11:55:15;;;;;;;4.70;1.40;;;21.60;45.40;;;;;;5004973;28;20044;-75
2022/05/25 11:57:44;;;;;;;6.28;1.10;;;21.00;44.70;;;;;;5002276;28;20733;-77
2022/05/25 12:00:31;;;;;;;10.60;1.27;;;20.90;44.40;;;;;;4995504;28;20034;-78
2022/05/25 12:03:22;;;;;;;9.05;1.40;;;20.90;44.90;;;;;;4997726;28;20871;-77
2022/05/25 12:05:58;;;;;;;6.50;1.13;;;21.10;44.90;;;;;;4999644;28;20030;-75
2022/05/25 12:09:00;;;;;;;6.35;1.38;;;21.20;44.70;;;;;;5002896;28;20062;-75
2022/05/25 12:11:50;;;;;;;5.50;1.30;;;21.20;45.80;;;;;;5010957;28;20045;-73
2022/05/25 12:14:36;;;;;;;5.10;1.20;;;21.10;48.00;;;;;;5004812;28;20090;-71
2022/05/25 12:17:12;;;;;;;4.93;1.13;;;20.40;46.10;;;;;;5008168;28;20103;-72
2022/05/25 12:19:39;;;;;;;7.90;1.27;;;20.20;45.80;;;;;;5008538;28;20044;-72
2022/05/25 12:22:13;;;;;;;5.40;1.17;;;20.30;46.20;;;;;;5002557;28;20064;-73
2022/05/25 12:24:51;;;;;;;5.45;1.20;;;20.80;46.90;;;;;;5001298;28;20079;-73
2022/05/25 12:27:21;;;;;;;4.65;1.30;;;21.20;45.60;;;;;;5032887;28;20173;-72
2022/05/25 12:29:54;;;;;;;7.63;1.30;;;20.90;46.40;;;;;;5012362;28;20083;-72
2022/05/25 12:32:20;;;;;;;4.80;1.23;;;21.10;47.50;;;;;;5013220;28;20119;-72
2022/05/25 12:34:51;;;;;;;4.32;1.02;;;21.00;47.00;;;;;;5016066;28;20037;-75
2022/05/25 12:37:40;;;;;;;7.95;1.20;;;21.00;47.50;;;;;;5003258;28;20379;-71
2022/05/25 12:40:29;;;;;;;4.65;1.10;;;20.60;46.90;;;;;;5011179;28;20132;-73
2022/05/25 12:42:54;;;;;;;5.05;1.45;;;20.30;48.00;;;;;;5006638;28;20560;-72
2022/05/25 12:48:31;;;;;;;3.83;1.20;;;19.60;49.80;;;;;;5009161;28;20104;-76
2022/05/25 12:51:04;;;;;;;7.35;1.70;;;19.30;48.30;;;;;;5012217;28;20029;-78
2022/05/25 12:53:36;;;;;;;5.05;1.00;;;19.20;49.50;;;;;;5010566;28;20434;-73
2022/05/25 12:56:05;;;;;;;7.72;1.30;;;19.20;49.10;;;;;;5013789;28;20053;-73
2022/05/25 12:58:36;;;;;;;6.75;1.58;;;19.50;48.80;;;;;;5007120;28;20033;-75
2022/05/25 13:01:14;;;;;;;6.75;1.48;;;19.60;49.70;;;;;;5010956;28;20631;-75
2022/05/25 13:03:48;;;;;;;6.55;1.60;;;19.40;49.90;;;;;;5015325;28;20041;-71
2022/05/25 13:06:17;;;;;;;7.15;1.23;;;19.50;50.80;;;;;;5010014;28;20042;-71
2022/05/25 13:08:55;;;;;;;4.68;1.38;;;19.30;51.40;;;;;;5006336;28;20081;-72
2022/05/25 13:11:46;;;;;;;6.38;1.60;;;19.70;50.90;;;;;;5013469;28;20045;-73
2022/05/25 13:14:22;;;;;;;10.85;1.40;;;20.00;49.70;;;;;;5014937;28;20052;-71
2022/05/25 13:16:50;;;;;;;8.48;1.40;;;20.10;48.40;;;;;;5009757;28;20045;-73
2022/05/25 13:19:40;;;;;;;8.23;1.25;;;19.90;48.80;;;;;;5015220;28;20052;-74
2022/05/25 13:22:13;;;;;;;7.38;1.20;;;20.00;48.80;;;;;;4998570;28;20044;-72
2022/05/25 13:25:01;;;;;;;5.72;1.40;;;19.70;49.80;;;;;;5017273;28;20041;-69
2022/05/25 13:27:38;;;;;;;5.88;1.08;;;19.50;50.40;;;;;;5005556;28;20900;-73
2022/05/25 13:30:28;;;;;;;6.18;1.40;;;19.50;49.70;;;;;;5003697;28;20469;-74
2022/05/25 13:33:04;;;;;;;7.65;1.40;;;19.80;50.10;;;;;;5010480;28;20034;-74